• Join FlightAware (Why Join?)
  • Login
  • US Flag 
09:31PM EDT


 

Airport Tracker/Info


-or-


 

Live Flight TrackerFlight Track Log ✈ EJA831 ✈ 16-Jul-2013 ✈ KBKL - KHPN

Flight Track Log - Related Links

Times and Time Zones

All times are in EDT time to prevent confusion due to time zone crossing. See the EJA831 flight status page for this flight to view local times or setup timezone preferences in your user account.

Time Position Orientation Groundspeed Altitude Reporting Facility
EDT Latitude Longitude Course Direction KTS MPH feet Rate Location/Type
11:40PM 41.5125 -81.6978 333° Northwest 158 182 1,100  Level Cleveland Center
11:41PM 41.5539 -81.7264 333° Northwest 248 285 3,100 1,980 Climbing Cleveland Center
11:42PM 41.5983 -81.6800 38° Northeast 251 289 5,300 2,820 Climbing Cleveland Center
11:43PM 41.6572 -81.6169 39° Northeast 284 327 8,700 3,000 Climbing Cleveland Center
11:44PM 41.7161 -81.5511 40° Northeast 297 342 11,300 2,160 Climbing Cleveland Center
11:46PM 41.8489 -81.3747 45° Northeast 312 359 15,300 2,160 Climbing Cleveland Center
11:47PM 41.8642 -81.2578 80° East 312 359 17,800 2,220 Climbing Cleveland Center
11:48PM 41.8836 -81.1353 78° East 320 368 19,800 1,980 Climbing Cleveland Center
11:49PM 41.9028 -81.0128 78° East 333 383 21,800 1,980 Climbing Cleveland Center
11:50PM 41.9242 -80.8875 77° East 340 391 23,800 1,860 Climbing Cleveland Center
11:51PM 41.9389 -80.7561 81° East 345 397 25,600 1,800 Climbing Cleveland Center
11:52PM 41.9475 -80.6278 85° East 350 403 27,500 1,800 Climbing Cleveland Center
11:53PM 41.9558 -80.4939 85° East 350 403 29,300 1,560 Climbing Cleveland Center
11:54PM 41.9661 -80.3736 83° East 350 403 30,700 1,440 Climbing Cleveland Center
11:55PM 41.9742 -80.2397 85° East 350 403 32,200 1,500 Climbing Cleveland Center
11:56PM 41.9819 -80.1028 86° East 355 409 33,800 1,440 Climbing Cleveland Center
11:57PM 41.9917 -79.9517 85° East 366 421 35,100 1,260 Climbing Cleveland Center
11:58PM 42.0011 -79.8147 85° East 366 421 36,400 900 Climbing Cleveland Center
11:59PM 42.0106 -79.6694 85° East 372 428 37,000 300 Climbing Cleveland Center
12:00AM 42.0156 -79.5294 87° East 395 455 37,000  Level Cleveland Center
12:01AM 42.0267 -79.3700 85° East 412 474 37,000  Level Cleveland Center
12:02AM 42.0353 -79.2106 86° East 425 489 37,000  Level Cleveland Center
12:03AM 42.0417 -79.0567 87° East 420 483 37,000  Level Cleveland Center
12:04AM 42.0519 -78.8997 85° East 420 483 37,000  Level Cleveland Center
12:05AM 42.0578 -78.7431 87° East 420 483 37,000  Level Cleveland Center
12:06AM 42.0658 -78.5917 86° East 420 483 37,000  Level Cleveland Center
12:07AM 42.0714 -78.4350 87° East 415 478 37,000  Level Cleveland Center
12:09AM 42.0853 -78.0925 87° East 422 486 37,000  Level New York Center
12:10AM 42.0925 -77.9367 86° East 422 486 37,000  Level New York Center
12:11AM 42.0975 -77.7861 87° East 417 480 37,000  Level New York Center
12:12AM 42.1044 -77.6303 87° East 417 480 37,000  Level New York Center
12:13AM 42.1089 -77.4769 88° East 417 480 37,000  Level New York Center
12:14AM 42.1147 -77.3350 87° East 422 486 37,000  Level New York Center
12:15AM 42.1211 -77.1819 87° East 417 480 37,000 -240 Level New York Center
12:16AM 42.1253 -77.0228 88° East 417 480 36,600 -1,020 Descending New York Center
12:17AM 42.0975 -76.8750 104° East 417 480 35,000 -1,560 Descending New York Center
12:18AM 42.0528 -76.7311 113° Southeast 412 474 33,500 -1,500 Descending New York Center
12:19AM 42.0097 -76.5906 112° Southeast 407 468 32,000 -1,560 Descending New York Center
12:20AM 41.9628 -76.4414 113° Southeast 413 475 30,500 -1,500 Descending New York Center
12:21AM 41.9178 -76.2953 112° Southeast 418 481 29,100 -1,620 Descending New York Center
12:22AM 41.8725 -76.1467 112° Southeast 428 493 27,300 -1,680 Descending New York Center
12:23AM 41.8247 -76.0008 114° Southeast 428 493 25,700 -1,620 Descending New York Center
12:24AM 41.7769 -75.8553 114° Southeast 428 493 24,200 -1,500 Descending New York Center
12:25AM 41.7311 -75.7128 113° Southeast 428 493 22,700 -1,500 Descending New York Center
12:26AM 41.6889 -75.5736 112° Southeast 421 484 21,200 -1,500 Descending New York Center
12:27AM 41.6442 -75.4372 114° Southeast 406 467 19,700 -1,560 Descending New York Center
12:28AM 41.6036 -75.3039 112° Southeast 395 455 18,100 -1,440 Descending New York Center
12:29AM 41.5606 -75.1761 114° Southeast 384 442 16,900 -1,500 Descending New York Center
12:30AM 41.5175 -75.0433 113° Southeast 379 436 15,200 -1,620 Descending New York Center
12:31AM 41.4742 -74.9186 115° Southeast 363 418 13,700 -1,500 Descending New York Center
12:32AM 41.4383 -74.8086 113° Southeast 363 418 12,300 -900 Descending New York Center
12:33AM 41.3947 -74.6786 114° Southeast 356 410 12,000 -180 Descending New York Center
12:34AM 41.3589 -74.5689 113° Southeast 351 404 12,000 -420 Level New York Center
12:35AM 41.3150 -74.4392 114° Southeast 346 398 11,200 -900 Descending New York Center
12:36AM 41.2844 -74.3464 114° Southeast 329 379 10,300 -1,020 Descending New York Center
12:37AM 41.2481 -74.2397 114° Southeast 300 345 9,200 -1,140 Descending New York Center
12:38AM 41.2156 -74.1444 114° Southeast 283 326 8,100 -1,020 Descending New York Center
12:39AM 41.1828 -74.0489 114° Southeast 283 326 7,200 -1,020 Descending New York Center
12:40AM 41.1519 -73.9564 114° Southeast 277 319 6,100 -1,020 Descending New York Center
12:41AM 41.1103 -73.8803 126° Southeast 264 304 5,200 -1,020 Descending New York Center
12:42AM 41.0597 -73.8256 141° Southeast 246 283 4,200 -1,080 Descending New York Center
12:43AM 41.0333 -73.8000 144° Southeast 214 246 3,600 -1,320 Descending New York TRACON
12:44AM 41.0167 -73.7333 108° East 164 189 2,100 -1,140 Descending New York TRACON
12:45AM 41.0167 -73.7000 90° East 124 143 1,400 -840 Descending New York TRACON
12:46AM 41.0500 -73.7000 360° North 106 122 600 -840 Descending New York TRACON
12:48AM 41.0667 -73.7000 294° West  Level FlightAware Approximate
12:55AM 41.0669 -73.7076 294° West  Level Estimated